sensor_id;sensor_type;location;lat;lon;timestamp;temperature;humidity
2112;DHT22;1062;52.538;13.400;2023-04-01T00:00:57;9.80;99.90
2112;DHT22;1062;52.538;13.400;2023-04-01T00:03:23;9.80;99.90
2112;DHT22;1062;52.538;13.400;2023-04-01T00:05:49;9.80;99.90
2112;DHT22;1062;52.538;13.400;2023-04-01T00:08:15;9.80;99.90
2112;DHT22;1062;52.538;13.400;2023-04-01T00:10:41;9.80;99.90
2112;DHT22;1062;52.538;13.400;2023-04-01T00:13:07;9.80;99.90
2112;DHT22;1062;52.538;13.400;2023-04-01T00:15:32;9.70;99.90
2112;DHT22;1062;52.538;13.400;2023-04-01T00:17:58;9.70;99.90
2112;DHT22;1062;52.538;13.400;2023-04-01T00:20:24;9.70;99.90
2112;DHT22;1062;52.538;13.400;2023-04-01T00:22:50;9.70;99.90
2112;DHT22;1062;52.538;13.400;2023-04-01T00:25:15;9.70;99.90
2112;DHT22;1062;52.538;13.400;2023-04-01T00:27:41;9.70;99.90
2112;DHT22;1062;52.538;13.400;2023-04-01T00:30:08;9.60;99.90
2112;DHT22;1062;52.538;13.400;2023-04-01T00:32:34;9.60;99.90
2112;DHT22;1062;52.538;13.400;2023-04-01T00:35:01;9.60;99.90
2112;DHT22;1062;52.538;13.400;2023-04-01T00:37:27;9.70;99.90
2112;DHT22;1062;52.538;13.400;2023-04-01T00:39:53;9.70;99.90
2112;DHT22;1062;52.538;13.400;2023-04-01T00:42:19;9.70;99.90
2112;DHT22;1062;52.538;13.400;2023-04-01T00:44:51;9.70;99.90
2112;DHT22;1062;52.538;13.400;2023-04-01T00:47:17;9.70;99.90
2112;DHT22;1062;52.538;13.400;2023-04-01T00:49:46;9.70;99.90
2112;DHT22;1062;52.538;13.400;2023-04-01T00:52:16;9.70;99.90
2112;DHT22;1062;52.538;13.400;2023-04-01T00:54:45;9.70;99.90
2112;DHT22;1062;52.538;13.400;2023-04-01T00:57:40;9.70;99.90
2112;DHT22;1062;52.538;13.400;2023-04-01T01:00:09;9.70;99.90
2112;DHT22;1062;52.538;13.400;2023-04-01T01:02:36;9.80;99.90
2112;DHT22;1062;52.538;13.400;2023-04-01T01:05:02;9.80;99.90
2112;DHT22;1062;52.538;13.400;2023-04-01T01:10:35;9.80;99.90
2112;DHT22;1062;52.538;13.400;2023-04-01T01:13:36;9.70;99.90
2112;DHT22;1062;52.538;13.400;2023-04-01T01:16:14;9.80;99.90
2112;DHT22;1062;52.538;13.400;2023-04-01T01:18:46;9.70;99.90
2112;DHT22;1062;52.538;13.400;2023-04-01T01:22:04;9.70;99.90
2112;DHT22;1062;52.538;13.400;2023-04-01T01:27:11;9.80;99.90
2112;DHT22;1062;52.538;13.400;2023-04-01T01:37:41;9.80;99.90
2112;DHT22;1062;52.538;13.400;2023-04-01T01:40:09;9.80;99.90
2112;DHT22;1062;52.538;13.400;2023-04-01T01:42:39;9.80;99.90
2112;DHT22;1062;52.538;13.400;2023-04-01T01:45:07;9.70;99.90
2112;DHT22;1062;52.538;13.400;2023-04-01T01:47:34;9.70;99.90
2112;DHT22;1062;52.538;13.400;2023-04-01T01:50:02;9.70;99.90
2112;DHT22;1062;52.538;13.400;2023-04-01T01:52:29;9.70;99.90
2112;DHT22;1062;52.538;13.400;2023-04-01T01:54:57;9.80;99.90
2112;DHT22;1062;52.538;13.400;2023-04-01T01:57:33;9.80;99.90
2112;DHT22;1062;52.538;13.400;2023-04-01T02:00:06;9.80;99.90
2112;DHT22;1062;52.538;13.400;2023-04-01T02:02:42;9.80;99.90
2112;DHT22;1062;52.538;13.400;2023-04-01T02:05:11;9.80;99.90
2112;DHT22;1062;52.538;13.400;2023-04-01T02:07:43;9.80;99.90
2112;DHT22;1062;52.538;13.400;2023-04-01T02:10:10;9.80;99.90
2112;DHT22;1062;52.538;13.400;2023-04-01T02:12:38;9.80;99.90
2112;DHT22;1062;52.538;13.400;2023-04-01T02:15:07;9.70;99.90
2112;DHT22;1062;52.538;13.400;2023-04-01T02:17:39;9.70;99.90
2112;DHT22;1062;52.538;13.400;2023-04-01T02:20:18;9.60;99.90
2112;DHT22;1062;52.538;13.400;2023-04-01T02:22:51;9.70;99.90
2112;DHT22;1062;52.538;13.400;2023-04-01T02:25:23;9.70;99.90
2112;DHT22;1062;52.538;13.400;2023-04-01T02:27:50;9.70;99.90
2112;DHT22;1062;52.538;13.400;2023-04-01T02:30:17;9.80;99.90
2112;DHT22;1062;52.538;13.400;2023-04-01T02:32:44;9.70;99.90
2112;DHT22;1062;52.538;13.400;2023-04-01T02:35:12;9.80;99.90
2112;DHT22;1062;52.538;13.400;2023-04-01T02:37:40;9.70;99.90
2112;DHT22;1062;52.538;13.400;2023-04-01T02:40:10;9.70;99.90
2112;DHT22;1062;52.538;13.400;2023-04-01T02:42:36;9.70;99.90
2112;DHT22;1062;52.538;13.400;2023-04-01T02:45:03;9.70;99.90
2112;DHT22;1062;52.538;13.400;2023-04-01T02:47:28;9.80;99.90
2112;DHT22;1062;52.538;13.400;2023-04-01T02:49:54;9.80;99.90
2112;DHT22;1062;52.538;13.400;2023-04-01T02:52:28;9.80;99.90
2112;DHT22;1062;52.538;13.400;2023-04-01T02:54:55;9.70;99.90
2112;DHT22;1062;52.538;13.400;2023-04-01T02:57:21;9.70;99.90
2112;DHT22;1062;52.538;13.400;2023-04-01T02:59:47;9.70;99.90
2112;DHT22;1062;52.538;13.400;2023-04-01T03:02:13;9.60;99.90
2112;DHT22;1062;52.538;13.400;2023-04-01T03:04:39;9.70;99.90
2112;DHT22;1062;52.538;13.400;2023-04-01T03:07:05;9.70;99.90
2112;DHT22;1062;52.538;13.400;2023-04-01T03:09:30;9.60;99.90
2112;DHT22;1062;52.538;13.400;2023-04-01T03:11:56;9.60;99.90
2112;DHT22;1062;52.538;13.400;2023-04-01T03:14:22;9.70;99.90
2112;DHT22;1062;52.538;13.400;2023-04-01T03:16:47;9.70;99.90
2112;DHT22;1062;52.538;13.400;2023-04-01T03:19:13;9.70;99.90
2112;DHT22;1062;52.538;13.400;2023-04-01T03:21:39;9.70;99.90
2112;DHT22;1062;52.538;13.400;2023-04-01T03:24:05;9.70;99.90
2112;DHT22;1062;52.538;13.400;2023-04-01T03:26:31;9.70;99.90
2112;DHT22;1062;52.538;13.400;2023-04-01T03:28:57;9.70;99.90
2112;DHT22;1062;52.538;13.400;2023-04-01T03:31:23;9.70;99.90
2112;DHT22;1062;52.538;13.400;2023-04-01T03:33:48;9.70;99.90
2112;DHT22;1062;52.538;13.400;2023-04-01T03:36:14;9.80;99.90
2112;DHT22;1062;52.538;13.400;2023-04-01T03:38:41;9.80;99.90
2112;DHT22;1062;52.538;13.400;2023-04-01T03:41:07;9.70;99.90
2112;DHT22;1062;52.538;13.400;2023-04-01T03:43:36;9.70;99.90
2112;DHT22;1062;52.538;13.400;2023-04-01T03:46:02;9.80;99.90
2112;DHT22;1062;52.538;13.400;2023-04-01T03:48:27;9.70;99.90
2112;DHT22;1062;52.538;13.400;2023-04-01T03:50:53;9.80;99.90
2112;DHT22;1062;52.538;13.400;2023-04-01T03:53:18;9.80;99.90
2112;DHT22;1062;52.538;13.400;2023-04-01T03:55:45;9.80;99.90
2112;DHT22;1062;52.538;13.400;2023-04-01T03:58:10;9.70;99.90
2112;DHT22;1062;52.538;13.400;2023-04-01T04:00:36;9.80;99.90
2112;DHT22;1062;52.538;13.400;2023-04-01T04:03:02;9.80;99.90
2112;DHT22;1062;52.538;13.400;2023-04-01T04:05:28;9.90;99.90
2112;DHT22;1062;52.538;13.400;2023-04-01T04:07:54;9.90;99.90
2112;DHT22;1062;52.538;13.400;2023-04-01T04:10:20;9.90;99.90
2112;DHT22;1062;52.538;13.400;2023-04-01T04:12:46;9.90;99.90
2112;DHT22;1062;52.538;13.400;2023-04-01T04:15:12;9.80;99.90
2112;DHT22;1062;52.538;13.400;2023-04-01T04:17:37;9.80;99.90
2112;DHT22;1062;52.538;13.400;2023-04-01T04:20:03;9.80;99.90
2112;DHT22;1062;52.538;13.400;2023-04-01T04:22:29;9.80;99.90
2112;DHT22;1062;52.538;13.400;2023-04-01T04:24:55;9.80;99.90
2112;DHT22;1062;52.538;13.400;2023-04-01T04:27:21;9.80;99.90
2112;DHT22;1062;52.538;13.400;2023-04-01T04:29:46;9.80;99.90
2112;DHT22;1062;52.538;13.400;2023-04-01T04:32:12;9.80;99.90
2112;DHT22;1062;52.538;13.400;2023-04-01T04:34:37;9.80;99.90
2112;DHT22;1062;52.538;13.400;2023-04-01T04:37:03;9.70;99.90
2112;DHT22;1062;52.538;13.400;2023-04-01T04:39:29;9.70;99.90
2112;DHT22;1062;52.538;13.400;2023-04-01T04:41:55;9.70;99.90
2112;DHT22;1062;52.538;13.400;2023-04-01T04:44:21;9.70;99.90
2112;DHT22;1062;52.538;13.400;2023-04-01T04:46:46;9.70;99.90
2112;DHT22;1062;52.538;13.400;2023-04-01T04:49:12;9.80;99.90
2112;DHT22;1062;52.538;13.400;2023-04-01T04:51:38;9.80;99.90
2112;DHT22;1062;52.538;13.400;2023-04-01T04:54:04;9.80;99.90
2112;DHT22;1062;52.538;13.400;2023-04-01T04:56:30;9.80;99.90
2112;DHT22;1062;52.538;13.400;2023-04-01T04:58:57;9.80;99.90
2112;DHT22;1062;52.538;13.400;2023-04-01T05:01:23;9.70;99.90
2112;DHT22;1062;52.538;13.400;2023-04-01T05:03:49;9.70;99.90
2112;DHT22;1062;52.538;13.400;2023-04-01T05:06:16;9.70;99.90
2112;DHT22;1062;52.538;13.400;2023-04-01T05:08:44;9.70;99.90
2112;DHT22;1062;52.538;13.400;2023-04-01T05:11:13;9.70;99.90
2112;DHT22;1062;52.538;13.400;2023-04-01T05:13:40;9.70;99.90
2112;DHT22;1062;52.538;13.400;2023-04-01T05:16:15;9.80;99.90
2112;DHT22;1062;52.538;13.400;2023-04-01T05:18:41;9.70;99.90
2112;DHT22;1062;52.538;13.400;2023-04-01T05:21:08;9.80;99.90
2112;DHT22;1062;52.538;13.400;2023-04-01T05:23:34;9.80;99.90
2112;DHT22;1062;52.538;13.400;2023-04-01T05:26:09;9.80;99.90
2112;DHT22;1062;52.538;13.400;2023-04-01T05:28:35;9.90;99.90
2112;DHT22;1062;52.538;13.400;2023-04-01T05:31:01;9.90;99.90
2112;DHT22;1062;52.538;13.400;2023-04-01T05:33:27;9.80;99.90
2112;DHT22;1062;52.538;13.400;2023-04-01T05:35:54;9.80;99.90
2112;DHT22;1062;52.538;13.400;2023-04-01T05:38:20;9.80;99.90
2112;DHT22;1062;52.538;13.400;2023-04-01T05:40:45;9.80;99.90
2112;DHT22;1062;52.538;13.400;2023-04-01T05:43:11;9.80;99.90
2112;DHT22;1062;52.538;13.400;2023-04-01T05:45:37;9.80;99.90
2112;DHT22;1062;52.538;13.400;2023-04-01T05:48:03;9.80;99.90
2112;DHT22;1062;52.538;13.400;2023-04-01T05:50:28;9.80;99.90
2112;DHT22;1062;52.538;13.400;2023-04-01T05:52:54;9.90;99.90
2112;DHT22;1062;52.538;13.400;2023-04-01T05:55:20;9.90;99.90
2112;DHT22;1062;52.538;13.400;2023-04-01T05:57:46;9.90;99.90
2112;DHT22;1062;52.538;13.400;2023-04-01T06:00:13;10.00;99.90
2112;DHT22;1062;52.538;13.400;2023-04-01T06:02:39;10.00;99.90
2112;DHT22;1062;52.538;13.400;2023-04-01T06:05:24;10.00;99.90
2112;DHT22;1062;52.538;13.400;2023-04-01T06:07:58;10.00;99.90
2112;DHT22;1062;52.538;13.400;2023-04-01T06:10:44;9.90;99.90
2112;DHT22;1062;52.538;13.400;2023-04-01T06:44:57;10.10;99.90
2112;DHT22;1062;52.538;13.400;2023-04-01T06:49:48;10.10;99.90
2112;DHT22;1062;52.538;13.400;2023-04-01T06:55:20;10.00;99.90
2112;DHT22;1062;52.538;13.400;2023-04-01T06:57:53;10.00;99.90
2112;DHT22;1062;52.538;13.400;2023-04-01T07:00:36;10.10;99.90
2112;DHT22;1062;52.538;13.400;2023-04-01T07:03:20;10.00;99.90
2112;DHT22;1062;52.538;13.400;2023-04-01T07:05:46;10.10;99.90
2112;DHT22;1062;52.538;13.400;2023-04-01T07:08:18;10.10;99.90
2112;DHT22;1062;52.538;13.400;2023-04-01T07:10:54;10.20;99.90
2112;DHT22;1062;52.538;13.400;2023-04-01T07:13:33;10.10;99.90
2112;DHT22;1062;52.538;13.400;2023-04-01T07:16:12;10.20;99.90
2112;DHT22;1062;52.538;13.400;2023-04-01T07:19:01;10.20;99.90
2112;DHT22;1062;52.538;13.400;2023-04-01T07:21:48;10.20;99.90
2112;DHT22;1062;52.538;13.400;2023-04-01T07:24:21;10.10;99.90
2112;DHT22;1062;52.538;13.400;2023-04-01T07:26:54;10.20;99.90
2112;DHT22;1062;52.538;13.400;2023-04-01T07:29:20;10.30;99.90
2112;DHT22;1062;52.538;13.400;2023-04-01T07:34:26;10.30;99.90
2112;DHT22;1062;52.538;13.400;2023-04-01T07:38:03;10.40;99.90
2112;DHT22;1062;52.538;13.400;2023-04-01T07:59:25;10.40;99.90
2112;DHT22;1062;52.538;13.400;2023-04-01T08:07:31;10.40;99.90
2112;DHT22;1062;52.538;13.400;2023-04-01T08:10:08;10.50;99.90
2112;DHT22;1062;52.538;13.400;2023-04-01T08:13:02;10.40;99.90
2112;DHT22;1062;52.538;13.400;2023-04-01T08:18:15;10.00;99.90
2112;DHT22;1062;52.538;13.400;2023-04-01T08:20:59;10.10;99.90
2112;DHT22;1062;52.538;13.400;2023-04-01T08:23:32;10.10;99.90
2112;DHT22;1062;52.538;13.400;2023-04-01T08:34:25;9.90;99.90
2112;DHT22;1062;52.538;13.400;2023-04-01T08:36:58;9.80;99.90
2112;DHT22;1062;52.538;13.400;2023-04-01T08:39:34;9.70;99.90
2112;DHT22;1062;52.538;13.400;2023-04-01T08:45:38;9.70;99.90
2112;DHT22;1062;52.538;13.400;2023-04-01T08:53:42;9.50;99.90
2112;DHT22;1062;52.538;13.400;2023-04-01T08:56:30;9.60;99.90
2112;DHT22;1062;52.538;13.400;2023-04-01T08:59:11;9.50;99.90
2112;DHT22;1062;52.538;13.400;2023-04-01T09:01:57;9.60;99.90
2112;DHT22;1062;52.538;13.400;2023-04-01T09:07:17;9.70;99.90
2112;DHT22;1062;52.538;13.400;2023-04-01T09:13:35;9.90;99.90
2112;DHT22;1062;52.538;13.400;2023-04-01T09:32:00;9.80;99.90
2112;DHT22;1062;52.538;13.400;2023-04-01T09:46:25;9.70;99.90
2112;DHT22;1062;52.538;13.400;2023-04-01T09:49:11;9.80;99.90
2112;DHT22;1062;52.538;13.400;2023-04-01T09:54:51;9.50;99.90
2112;DHT22;1062;52.538;13.400;2023-04-01T09:57:39;9.50;99.90
2112;DHT22;1062;52.538;13.400;2023-04-01T10:06:12;9.20;99.90
2112;DHT22;1062;52.538;13.400;2023-04-01T11:16:23;8.70;99.90
2112;DHT22;1062;52.538;13.400;2023-04-01T11:30:02;8.60;99.90
2112;DHT22;1062;52.538;13.400;2023-04-01T11:35:24;8.60;99.90
2112;DHT22;1062;52.538;13.400;2023-04-01T11:38:26;8.60;99.90
2112;DHT22;1062;52.538;13.400;2023-04-01T11:44:03;8.50;99.90
2112;DHT22;1062;52.538;13.400;2023-04-01T11:46:46;8.60;99.90
2112;DHT22;1062;52.538;13.400;2023-04-01T11:49:36;8.60;99.90
2112;DHT22;1062;52.538;13.400;2023-04-01T12:00:14;8.40;99.90
2112;DHT22;1062;52.538;13.400;2023-04-01T12:05:58;8.20;99.90
2112;DHT22;1062;52.538;13.400;2023-04-01T12:14:35;8.00;99.90
2112;DHT22;1062;52.538;13.400;2023-04-01T12:17:25;8.20;99.90
2112;DHT22;1062;52.538;13.400;2023-04-01T12:48:02;8.00;99.90
2112;DHT22;1062;52.538;13.400;2023-04-01T12:56:52;7.80;99.90
2112;DHT22;1062;52.538;13.400;2023-04-01T13:10:17;7.70;99.90
2112;DHT22;1062;52.538;13.400;2023-04-01T13:15:40;7.60;99.90
2112;DHT22;1062;52.538;13.400;2023-04-01T13:18:31;7.60;99.90
2112;DHT22;1062;52.538;13.400;2023-04-01T13:26:45;7.70;99.90
2112;DHT22;1062;52.538;13.400;2023-04-01T13:37:44;7.60;99.90
2112;DHT22;1062;52.538;13.400;2023-04-01T13:42:46;7.60;99.90
2112;DHT22;1062;52.538;13.400;2023-04-01T13:45:22;7.60;99.90
2112;DHT22;1062;52.538;13.400;2023-04-01T13:59:03;7.60;99.90
2112;DHT22;1062;52.538;13.400;2023-04-01T14:01:50;7.60;99.90
2112;DHT22;1062;52.538;13.400;2023-04-01T14:10:30;7.70;99.90
2112;DHT22;1062;52.538;13.400;2023-04-01T14:12:58;7.60;99.90
2112;DHT22;1062;52.538;13.400;2023-04-01T14:15:38;7.60;99.90
2112;DHT22;1062;52.538;13.400;2023-04-01T14:18:33;7.70;99.90
2112;DHT22;1062;52.538;13.400;2023-04-01T14:32:24;7.50;99.90
2112;DHT22;1062;52.538;13.400;2023-04-01T14:40:24;7.40;99.90
2112;DHT22;1062;52.538;13.400;2023-04-01T14:46:14;7.30;99.90
2112;DHT22;1062;52.538;13.400;2023-04-01T14:48:51;7.40;99.90
2112;DHT22;1062;52.538;13.400;2023-04-01T14:51:36;7.40;99.90
2112;DHT22;1062;52.538;13.400;2023-04-01T14:54:32;7.30;99.90
2112;DHT22;1062;52.538;13.400;2023-04-01T14:57:15;7.30;99.90
2112;DHT22;1062;52.538;13.400;2023-04-01T14:59:54;7.40;99.90
2112;DHT22;1062;52.538;13.400;2023-04-01T15:07:55;7.40;99.90
2112;DHT22;1062;52.538;13.400;2023-04-01T15:16:55;7.10;99.90
2112;DHT22;1062;52.538;13.400;2023-04-01T15:25:50;6.90;99.90
2112;DHT22;1062;52.538;13.400;2023-04-01T15:36:41;6.70;99.90
2112;DHT22;1062;52.538;13.400;2023-04-01T15:49:56;6.70;99.90
2112;DHT22;1062;52.538;13.400;2023-04-01T16:12:19;6.60;99.90
2112;DHT22;1062;52.538;13.400;2023-04-01T16:17:54;6.50;99.90
2112;DHT22;1062;52.538;13.400;2023-04-01T16:21:34;6.40;99.90
2112;DHT22;1062;52.538;13.400;2023-04-01T16:23:50;6.40;99.90
2112;DHT22;1062;52.538;13.400;2023-04-01T16:29:10;6.30;99.90
2112;DHT22;1062;52.538;13.400;2023-04-01T16:38:03;6.30;99.90
2112;DHT22;1062;52.538;13.400;2023-04-01T16:46:32;6.00;99.90
2112;DHT22;1062;52.538;13.400;2023-04-01T16:49:04;6.00;99.90
2112;DHT22;1062;52.538;13.400;2023-04-01T16:51:52;5.90;99.90
2112;DHT22;1062;52.538;13.400;2023-04-01T16:57:50;6.00;99.90
2112;DHT22;1062;52.538;13.400;2023-04-01T17:00:39;6.00;99.90
2112;DHT22;1062;52.538;13.400;2023-04-01T17:11:27;5.90;99.90
2112;DHT22;1062;52.538;13.400;2023-04-01T17:22:40;5.60;99.90
2112;DHT22;1062;52.538;13.400;2023-04-01T17:31:10;5.40;99.90
2112;DHT22;1062;52.538;13.400;2023-04-01T17:47:23;5.30;99.90
2112;DHT22;1062;52.538;13.400;2023-04-01T17:52:44;5.10;99.90
2112;DHT22;1062;52.538;13.400;2023-04-01T17:57:54;5.10;99.90
2112;DHT22;1062;52.538;13.400;2023-04-01T18:00:26;5.00;99.90
2112;DHT22;1062;52.538;13.400;2023-04-01T18:08:46;4.90;99.90
2112;DHT22;1062;52.538;13.400;2023-04-01T18:14:28;4.90;99.90
2112;DHT22;1062;52.538;13.400;2023-04-01T18:19:39;4.90;99.90
2112;DHT22;1062;52.538;13.400;2023-04-01T18:24:59;4.80;99.90
2112;DHT22;1062;52.538;13.400;2023-04-01T18:28:11;4.80;99.90
2112;DHT22;1062;52.538;13.400;2023-04-01T18:30:22;4.80;99.90
2112;DHT22;1062;52.538;13.400;2023-04-01T18:38:31;4.80;99.90
2112;DHT22;1062;52.538;13.400;2023-04-01T18:41:12;4.80;99.90
2112;DHT22;1062;52.538;13.400;2023-04-01T18:52:40;4.70;99.90
2112;DHT22;1062;52.538;13.400;2023-04-01T18:57:59;4.70;99.90
2112;DHT22;1062;52.538;13.400;2023-04-01T19:00:44;4.70;99.90
2112;DHT22;1062;52.538;13.400;2023-04-01T19:07:00;4.60;99.90
2112;DHT22;1062;52.538;13.400;2023-04-01T19:09:48;4.60;99.90
2112;DHT22;1062;52.538;13.400;2023-04-01T19:12:26;4.60;99.90
2112;DHT22;1062;52.538;13.400;2023-04-01T19:15:19;4.60;99.90
2112;DHT22;1062;52.538;13.400;2023-04-01T19:20:54;4.40;99.90
2112;DHT22;1062;52.538;13.400;2023-04-01T19:24:01;4.50;99.90
2112;DHT22;1062;52.538;13.400;2023-04-01T19:26:48;4.40;99.90
2112;DHT22;1062;52.538;13.400;2023-04-01T19:29:43;4.30;99.90
2112;DHT22;1062;52.538;13.400;2023-04-01T19:41:00;4.20;99.90
2112;DHT22;1062;52.538;13.400;2023-04-01T19:43:39;4.20;99.90
2112;DHT22;1062;52.538;13.400;2023-04-01T19:51:31;4.20;99.90
2112;DHT22;1062;52.538;13.400;2023-04-01T19:59:53;4.20;99.90
2112;DHT22;1062;52.538;13.400;2023-04-01T20:04:56;4.10;99.90
2112;DHT22;1062;52.538;13.400;2023-04-01T20:07:32;4.10;99.90
2112;DHT22;1062;52.538;13.400;2023-04-01T20:10:22;4.10;99.90
2112;DHT22;1062;52.538;13.400;2023-04-01T20:15:47;4.10;99.90
2112;DHT22;1062;52.538;13.400;2023-04-01T20:18:32;4.00;99.90
2112;DHT22;1062;52.538;13.400;2023-04-01T20:23:47;4.00;99.90
2112;DHT22;1062;52.538;13.400;2023-04-01T20:26:21;4.00;99.90
2112;DHT22;1062;52.538;13.400;2023-04-01T20:29:23;3.90;99.90
2112;DHT22;1062;52.538;13.400;2023-04-01T20:37:44;3.80;99.90
2112;DHT22;1062;52.538;13.400;2023-04-01T20:40:31;3.80;99.90
2112;DHT22;1062;52.538;13.400;2023-04-01T20:43:05;3.80;99.90
2112;DHT22;1062;52.538;13.400;2023-04-01T20:50:59;3.80;99.90
2112;DHT22;1062;52.538;13.400;2023-04-01T20:53:35;3.80;99.90
2112;DHT22;1062;52.538;13.400;2023-04-01T20:58:41;3.80;99.90
2112;DHT22;1062;52.538;13.400;2023-04-01T21:06:48;3.70;99.90
2112;DHT22;1062;52.538;13.400;2023-04-01T21:12:21;3.70;99.90
2112;DHT22;1062;52.538;13.400;2023-04-01T21:23:24;3.60;99.90
2112;DHT22;1062;52.538;13.400;2023-04-01T21:26:19;3.60;99.90
2112;DHT22;1062;52.538;13.400;2023-04-01T21:34:35;3.50;99.90
2112;DHT22;1062;52.538;13.400;2023-04-01T21:53:37;3.50;99.90
2112;DHT22;1062;52.538;13.400;2023-04-01T22:07:04;3.50;99.90
2112;DHT22;1062;52.538;13.400;2023-04-01T22:12:25;3.50;99.90
2112;DHT22;1062;52.538;13.400;2023-04-01T22:17:47;3.40;99.90
2112;DHT22;1062;52.538;13.400;2023-04-01T22:20:28;3.40;99.90
2112;DHT22;1062;52.538;13.400;2023-04-01T22:23:29;3.40;99.90
2112;DHT22;1062;52.538;13.400;2023-04-01T22:29:10;3.40;99.90
2112;DHT22;1062;52.538;13.400;2023-04-01T22:31:49;3.30;99.90
2112;DHT22;1062;52.538;13.400;2023-04-01T22:39:56;3.30;99.90
2112;DHT22;1062;52.538;13.400;2023-04-01T22:42:47;3.30;99.90
2112;DHT22;1062;52.538;13.400;2023-04-01T22:45:51;3.30;99.90
2112;DHT22;1062;52.538;13.400;2023-04-01T22:48:44;3.30;99.90
2112;DHT22;1062;52.538;13.400;2023-04-01T22:51:38;3.30;99.90
2112;DHT22;1062;52.538;13.400;2023-04-01T22:56:37;3.30;99.90
2112;DHT22;1062;52.538;13.400;2023-04-01T23:01:57;3.30;99.90
2112;DHT22;1062;52.538;13.400;2023-04-01T23:04:31;3.30;99.90
2112;DHT22;1062;52.538;13.400;2023-04-01T23:07:03;3.30;99.90
2112;DHT22;1062;52.538;13.400;2023-04-01T23:09:34;3.30;99.90
2112;DHT22;1062;52.538;13.400;2023-04-01T23:12:12;3.30;99.90
2112;DHT22;1062;52.538;13.400;2023-04-01T23:14:44;3.30;99.90
2112;DHT22;1062;52.538;13.400;2023-04-01T23:23:17;3.30;99.90
2112;DHT22;1062;52.538;13.400;2023-04-01T23:26:20;3.30;99.90
2112;DHT22;1062;52.538;13.400;2023-04-01T23:28:54;3.30;99.90
2112;DHT22;1062;52.538;13.400;2023-04-01T23:31:38;3.30;99.90
2112;DHT22;1062;52.538;13.400;2023-04-01T23:36:46;3.30;99.90
2112;DHT22;1062;52.538;13.400;2023-04-01T23:39:32;3.30;99.90
2112;DHT22;1062;52.538;13.400;2023-04-01T23:42:25;3.30;99.90
2112;DHT22;1062;52.538;13.400;2023-04-01T23:44:53;3.30;99.90
2112;DHT22;1062;52.538;13.400;2023-04-01T23:47:26;3.30;99.90
2112;DHT22;1062;52.538;13.400;2023-04-01T23:50:01;3.30;99.90
2112;DHT22;1062;52.538;13.400;2023-04-01T23:52:36;3.40;99.90
2112;DHT22;1062;52.538;13.400;2023-04-01T23:57:36;3.30;99.90
